Time;durP1;ratioP1;P1;durP2;ratioP2;P2;SDS_P1;SDS_P2;PMS_P1;PMS_P2;Temp;Humidity;BMP_temperature;BMP_pressure;BME280_temperature;BME280_humidity;BME280_pressure;Samples;Min_cycle;Max_cycle;Signal;HPM_P1;HPM_P2
2022/10/18 00:01:53;;;;;;;4.22;2.75;;;;;;;23.56;45.58;100224.28;4183283;28;20052;-64
2022/10/18 00:03:57;;;;;;;5.22;2.88;;;;;;;23.56;45.63;100218.69;4181871;28;20162;-64
2022/10/18 00:05:59;;;;;;;11.45;3.15;;;;;;;23.26;45.60;100164.41;4188515;28;20040;-63
2022/10/18 00:08:00;;;;;;;5.60;3.10;;;;;;;23.55;45.55;100214.25;4189141;28;20094;-63
2022/10/18 00:10:03;;;;;;;3.78;2.30;;;;;;;23.50;45.79;100209.63;4181543;28;20536;-63
2022/10/18 00:12:04;;;;;;;8.85;3.35;;;;;;;23.60;45.61;100236.47;4182594;28;20033;-63
2022/10/18 00:14:06;;;;;;;3.88;2.45;;;;;;;23.60;45.70;100225.31;4190577;28;20040;-62
2022/10/18 00:16:16;;;;;;;7.05;2.97;;;;;;;23.59;46.08;100223.63;4194912;28;20107;-63
2022/10/18 00:18:18;;;;;;;4.78;3.05;;;;;;;23.59;45.69;100213.31;4196472;28;20086;-62
2022/10/18 00:20:19;;;;;;;4.82;2.78;;;;;;;23.57;46.04;100209.16;4197253;28;20419;-62
2022/10/18 00:22:20;;;;;;;4.85;2.63;;;;;;;23.61;46.11;100215.78;4197279;28;20502;-62
2022/10/18 00:24:22;;;;;;;7.18;2.80;;;;;;;23.63;45.96;100207.06;4187042;28;20044;-63
2022/10/18 00:26:26;;;;;;;3.15;2.55;;;;;;;23.61;45.96;100204.59;4196341;28;20090;-64
2022/10/18 00:28:27;;;;;;;7.57;3.25;;;;;;;23.65;46.15;100216.00;4186513;28;20049;-64
2022/10/18 00:30:28;;;;;;;5.03;2.50;;;;;;;23.61;46.44;100215.78;4193542;28;20036;-63
2022/10/18 00:32:29;;;;;;;4.35;2.95;;;;;;;23.65;46.37;100219.63;4189456;28;20045;-64
2022/10/18 00:34:31;;;;;;;5.80;3.45;;;;;;;23.66;46.36;100218.47;4195926;28;20040;-64
2022/10/18 00:36:34;;;;;;;4.32;3.08;;;;;;;23.66;46.36;100218.47;4193918;28;20044;-65
2022/10/18 00:38:38;;;;;;;4.40;2.97;;;;;;;23.67;46.19;100216.50;4180890;28;20443;-64
2022/10/18 00:40:39;;;;;;;3.47;2.75;;;;;;;23.68;46.07;100224.56;4186891;28;20094;-65
2022/10/18 00:42:41;;;;;;;5.50;3.22;;;;;;;23.66;46.14;100221.28;4180401;28;20103;-65
2022/10/18 00:44:42;;;;;;;5.15;2.55;;;;;;;23.70;46.38;100227.88;4180060;28;20048;-64
2022/10/18 00:46:45;;;;;;;5.93;2.92;;;;;;;23.73;46.00;100243.16;4191734;28;20163;-65
2022/10/18 00:48:47;;;;;;;8.35;2.83;;;;;;;23.73;46.30;100224.47;4180681;28;20099;-66
2022/10/18 00:50:51;;;;;;;8.55;2.80;;;;;;;23.74;46.17;100231.69;4185371;28;20041;-65
2022/10/18 00:52:59;;;;;;;4.72;3.10;;;;;;;23.67;46.07;100216.50;4190385;28;20443;-63
2022/10/18 00:55:05;;;;;;;4.35;2.75;;;;;;;23.66;46.14;100215.69;4184676;28;20049;-64
2022/10/18 00:57:07;;;;;;;6.90;2.80;;;;;;;23.78;46.45;100226.31;4182140;28;20098;-63
2022/10/18 00:59:09;;;;;;;6.47;3.25;;;;;;;23.79;46.42;100233.53;4197676;28;20052;-64
2022/10/18 01:01:10;;;;;;;6.25;2.95;;;;;;;23.74;46.43;100223.31;4192793;28;20422;-65
2022/10/18 01:03:11;;;;;;;4.32;2.72;;;;;;;23.80;46.29;100240.75;4184084;28;20110;-64
2022/10/18 01:05:18;;;;;;;7.88;3.45;;;;;;;23.76;46.34;100217.41;4199331;28;20052;-64
2022/10/18 01:07:25;;;;;;;6.22;3.28;;;;;;;23.80;46.27;100213.66;4198734;28;20061;-64
2022/10/18 01:09:29;;;;;;;4.43;2.78;;;;;;;23.82;46.37;100216.13;4184924;28;20041;-64
2022/10/18 01:12:08;;;;;;;5.43;3.50;;;;;;;23.80;46.39;100205.25;4192439;28;20029;-62
2022/10/18 01:14:30;;;;;;;5.82;3.17;;;;;;;23.82;46.36;100200.19;4198021;28;20048;-64
2022/10/18 01:16:56;;;;;;;4.82;3.10;;;;;;;23.84;46.49;100197.91;4183298;28;20419;-64
2022/10/18 01:19:34;;;;;;;5.65;3.30;;;;;;;23.84;46.28;100211.88;4194005;28;20048;-64
2022/10/18 01:21:49;;;;;;;6.45;3.30;;;;;;;23.88;46.44;100219.63;4172087;28;20037;-64
2022/10/18 01:24:02;;;;;;;4.15;3.13;;;;;;;23.89;46.05;100226.84;4184686;28;20103;-65
2022/10/18 01:26:35;;;;;;;4.03;3.58;;;;;;;23.88;46.19;100226.03;4199157;28;20040;-64
2022/10/18 01:29:04;;;;;;;4.88;3.42;;;;;;;23.91;46.33;100222.59;4179659;28;20044;-63
2022/10/18 01:31:14;;;;;;;5.22;3.17;;;;;;;23.83;46.54;100218.59;4199588;28;20383;-65
2022/10/18 01:33:40;;;;;;;3.58;3.20;;;;;;;23.92;46.28;100231.81;4186895;28;20094;-64
2022/10/18 01:35:50;;;;;;;39.63;5.95;;;;;;;23.95;46.04;100242.34;4183454;28;20036;-63
2022/10/18 01:37:55;;;;;;;6.10;2.95;;;;;;;23.97;46.16;100243.69;4188251;28;20037;-63
2022/10/18 01:39:59;;;;;;;4.68;3.00;;;;;;;23.99;46.23;100232.19;4199267;28;20037;-63
2022/10/18 01:42:06;;;;;;;4.90;3.10;;;;;;;23.91;46.02;100218.97;4199438;28;20048;-63
2022/10/18 01:44:13;;;;;;;5.05;3.40;;;;;;;24.01;45.96;100235.50;4197317;28;20453;-64
2022/10/18 01:46:21;;;;;;;5.63;3.13;;;;;;;24.02;45.99;100240.75;4185904;28;20045;-64
2022/10/18 01:48:23;;;;;;;5.47;3.30;;;;;;;23.98;45.95;100234.16;4184964;28;20110;-64
2022/10/18 01:50:31;;;;;;;5.50;3.15;;;;;;;24.02;46.12;100248.31;4187144;28;20075;-64
2022/10/18 01:52:46;;;;;;;5.60;3.42;;;;;;;24.02;46.22;100248.31;4213500;28;20048;-64
2022/10/18 01:54:47;;;;;;;5.63;3.28;;;;;;;24.03;46.05;100261.16;4208778;28;20048;-64
2022/10/18 01:57:04;;;;;;;5.78;3.60;;;;;;;23.32;45.97;100150.03;4197606;28;20078;-64
2022/10/18 01:59:26;;;;;;;5.72;3.33;;;;;;;24.01;46.20;100260.66;4181824;28;20041;-64
2022/10/18 02:01:58;;;;;;;4.88;3.42;;;;;;;24.00;46.08;100256.19;4189451;28;20098;-64
2022/10/18 02:04:19;;;;;;;5.35;3.72;;;;;;;23.72;46.18;100221.97;4181708;28;20049;-64
2022/10/18 02:06:31;;;;;;;4.72;3.42;;;;;;;24.01;46.04;100274.63;4187476;28;20557;-65
2022/10/18 02:08:54;;;;;;;6.65;3.83;;;;;;;24.00;46.30;100278.53;4193661;28;20040;-64
2022/10/18 02:11:02;;;;;;;5.72;3.55;;;;;;;24.02;46.21;100279.88;4191291;28;20048;-64
2022/10/18 02:13:03;;;;;;;5.28;3.63;;;;;;;24.00;46.25;100278.53;4184516;28;20522;-64
2022/10/18 02:15:08;;;;;;;121.30;13.00;;;;;;;24.00;46.24;100286.94;4195314;28;20037;-63
2022/10/18 02:17:11;;;;;;;;;;;;;;;24.00;46.23;100282.16;4190664;28;20098;-63
2022/10/18 02:19:45;;;;;;;4.80;3.55;;;;;;;24.04;45.97;100290.75;4196469;28;19966;-63
2022/10/18 02:21:49;;;;;;;4.97;3.53;;;;;;;24.04;45.99;100279.56;4183469;28;20040;-63
2022/10/18 02:23:51;;;;;;;4.93;3.78;;;;;;;24.03;46.20;100289.91;4193389;28;20593;-61
2022/10/18 02:25:53;;;;;;;6.68;2.90;;;;;;;24.01;46.06;100291.41;4194586;28;20073;-62
2022/10/18 02:27:57;;;;;;;8.77;3.67;;;;;;;24.00;45.73;100284.13;4195624;28;20033;-61
2022/10/18 02:29:58;;;;;;;8.57;3.40;;;;;;;23.94;45.73;100279.81;4193320;28;20153;-62
2022/10/18 02:32:22;;;;;;;9.27;3.60;;;;;;;23.95;45.83;100289.84;4197070;28;20491;-61
2022/10/18 02:34:30;;;;;;;7.57;3.30;;;;;;;23.99;45.74;100299.25;4196711;28;20052;-62
2022/10/18 02:36:52;;;;;;;8.07;4.68;;;;;;;23.97;45.64;100295.97;4192469;28;20056;-61
2022/10/18 02:39:01;;;;;;;9.57;4.32;;;;;;;23.95;45.52;100292.63;4190621;28;20105;-61
2022/10/18 02:41:03;;;;;;;7.53;3.45;;;;;;;24.01;45.50;100302.56;4185827;28;20089;-62
2022/10/18 02:43:05;;;;;;;5.72;3.40;;;;;;;24.01;45.37;100303.41;4197440;28;20102;-61
2022/10/18 02:45:07;;;;;;;4.70;3.08;;;;;;;24.02;45.42;100315.41;4192478;28;20126;-62
2022/10/18 02:47:12;;;;;;;4.03;3.58;;;;;;;23.91;45.53;100291.63;4182827;28;20074;-62
2022/10/18 02:49:13;;;;;;;6.25;3.40;;;;;;;24.04;45.65;100313.09;4192522;28;20536;-61
2022/10/18 02:51:15;;;;;;;7.05;3.72;;;;;;;24.05;45.52;100311.94;4187246;28;20082;-62
2022/10/18 02:53:16;;;;;;;5.65;3.10;;;;;;;24.05;45.56;100303.56;4194215;28;20556;-61
2022/10/18 02:55:18;;;;;;;6.20;3.60;;;;;;;24.06;45.45;100316.41;4191016;28;20422;-62
2022/10/18 02:57:20;;;;;;;8.48;3.40;;;;;;;24.07;45.28;100312.47;4188389;28;20086;-61
2022/10/18 02:59:21;;;;;;;5.10;3.40;;;;;;;24.08;45.55;100314.13;4194166;28;20427;-63
2022/10/18 03:01:28;;;;;;;7.15;3.70;;;;;;;24.00;45.15;100289.72;4193541;28;20539;-61
2022/10/18 03:03:29;;;;;;;10.70;3.58;;;;;;;24.08;45.20;100312.16;4186830;28;20045;-62
2022/10/18 03:05:30;;;;;;;4.68;3.38;;;;;;;24.10;45.01;100300.66;4192676;28;20090;-62
2022/10/18 03:07:32;;;;;;;6.68;3.75;;;;;;;24.10;45.08;100300.66;4197359;28;20041;-62
2022/10/18 03:09:33;;;;;;;7.60;3.47;;;;;;;24.09;45.14;100296.19;4194896;28;20037;-62
2022/10/18 03:11:43;;;;;;;6.82;3.17;;;;;;;24.09;45.29;100287.81;4197706;28;20040;-62
2022/10/18 03:13:45;;;;;;;3.95;3.05;;;;;;;24.05;45.06;100281.19;4197029;28;20044;-62
2022/10/18 03:15:49;;;;;;;5.97;3.42;;;;;;;24.08;45.24;100280.56;4196474;28;20036;-62
2022/10/18 03:17:50;;;;;;;7.50;3.42;;;;;;;24.07;44.90;100276.13;4195745;28;21371;-62
2022/10/18 03:19:52;;;;;;;5.07;3.63;;;;;;;24.07;45.33;100278.94;4188659;28;20070;-62
2022/10/18 03:21:55;;;;;;;7.78;4.00;;;;;;;24.08;45.39;100283.38;4196837;28;20113;-62
2022/10/18 03:23:58;;;;;;;6.75;3.33;;;;;;;23.93;45.05;100250.22;4196819;28;20040;-62
2022/10/18 03:25:59;;;;;;;6.80;3.85;;;;;;;24.17;44.89;100283.44;4195757;28;20048;-62
2022/10/18 03:28:01;;;;;;;6.28;3.05;;;;;;;24.09;44.83;100273.84;4197494;28;20048;-62
2022/10/18 03:30:07;;;;;;;5.65;3.10;;;;;;;24.09;44.78;100271.03;4196663;28;20048;-62
2022/10/18 03:32:08;;;;;;;6.20;3.58;;;;;;;24.21;44.64;100279.69;4196578;28;20048;-62
2022/10/18 03:34:10;;;;;;;5.45;3.42;;;;;;;24.23;44.40;100282.97;4197120;28;20098;-62
2022/10/18 03:36:11;;;;;;;5.03;3.28;;;;;;;24.25;44.39;100291.88;4196524;28;20101;-62
2022/10/18 03:38:12;;;;;;;4.38;3.47;;;;;;;24.25;44.36;100299.44;4196106;28;20036;-63
2022/10/18 03:40:14;;;;;;;4.35;3.40;;;;;;;24.26;44.44;100299.13;4196795;28;20079;-62
2022/10/18 03:42:15;;;;;;;5.30;3.20;;;;;;;24.18;44.40;100288.69;4196977;28;20036;-63
2022/10/18 03:44:19;;;;;;;5.00;2.78;;;;;;;24.25;44.13;100302.25;4196049;28;20040;-62
2022/10/18 03:46:20;;;;;;;5.13;2.80;;;;;;;24.22;44.15;100294.47;4196070;28;20040;-61
2022/10/18 03:48:21;;;;;;;4.43;3.08;;;;;;;24.26;44.22;100296.31;4196531;28;20361;-62
2022/10/18 03:50:23;;;;;;;3.97;3.08;;;;;;;24.26;44.09;100304.72;4196544;28;20045;-62
2022/10/18 03:52:24;;;;;;;4.38;3.33;;;;;;;24.22;44.29;100309.28;4196872;28;20040;-63
2022/10/18 03:54:25;;;;;;;4.00;3.03;;;;;;;24.25;44.31;100327.41;4195612;28;20032;-62
2022/10/18 03:56:27;;;;;;;5.10;3.20;;;;;;;24.23;43.82;100338.06;4196354;28;20098;-63
2022/10/18 03:58:28;;;;;;;3.53;2.95;;;;;;;24.25;44.27;100347.78;4195492;28;20066;-62
2022/10/18 04:00:29;;;;;;;6.75;2.97;;;;;;;24.25;44.24;100341.38;4196383;28;20032;-62
2022/10/18 04:02:31;;;;;;;3.45;3.13;;;;;;;24.24;43.75;100322.97;4197131;28;20036;-63
2022/10/18 04:04:35;;;;;;;4.95;3.40;;;;;;;24.22;44.08;100300.06;4195873;28;20048;-62
2022/10/18 04:06:36;;;;;;;3.50;2.58;;;;;;;24.18;44.03;100290.66;4196232;28;20036;-63
2022/10/18 04:08:37;;;;;;;3.80;2.60;;;;;;;24.24;44.01;100298.63;4196127;28;20075;-64
2022/10/18 04:10:39;;;;;;;3.95;3.00;;;;;;;24.22;43.88;100291.69;4192522;28;20045;-63
2022/10/18 04:12:40;;;;;;;4.05;2.88;;;;;;;24.22;43.70;100298.09;4180171;28;20036;-62
2022/10/18 04:14:50;;;;;;;5.57;3.35;;;;;;;24.21;43.74;100302.03;4179945;28;20095;-62
2022/10/18 04:16:51;;;;;;;5.80;3.00;;;;;;;24.21;43.74;100301.22;4180026;28;20041;-63
2022/10/18 04:18:53;;;;;;;5.20;2.53;;;;;;;24.12;43.63;100289.16;4185769;28;20101;-62
2022/10/18 04:20:54;;;;;;;5.15;2.95;;;;;;;24.20;43.77;100294.81;4195423;28;20083;-62
2022/10/18 04:23:01;;;;;;;6.00;2.95;;;;;;;24.15;43.83;100257.78;4196474;28;20101;-62
2022/10/18 04:25:03;;;;;;;5.05;2.90;;;;;;;24.19;43.75;100262.41;4196302;28;20473;-62
2022/10/18 04:27:05;;;;;;;5.35;2.70;;;;;;;24.19;43.63;100259.63;4196573;28;20493;-62
2022/10/18 04:29:06;;;;;;;5.00;2.75;;;;;;;24.20;43.31;100252.88;4180403;28;20107;-63
2022/10/18 04:31:11;;;;;;;4.35;2.95;;;;;;;24.20;43.67;100243.66;4190151;28;20041;-63
2022/10/18 04:33:13;;;;;;;2.97;2.30;;;;;;;24.18;43.66;100263.53;4197624;28;20114;-63
2022/10/18 04:35:14;;;;;;;4.57;2.80;;;;;;;24.18;43.61;100269.13;4198067;28;20074;-62
2022/10/18 04:37:16;;;;;;;3.20;2.40;;;;;;;24.18;43.26;100276.69;4215303;28;20036;-62
2022/10/18 04:39:17;;;;;;;6.60;2.70;;;;;;;24.17;43.44;100295.44;4215959;28;20044;-63
2022/10/18 04:41:21;;;;;;;3.80;2.83;;;;;;;24.16;43.47;100299.38;4216046;28;20091;-62
2022/10/18 04:43:23;;;;;;;3.15;2.53;;;;;;;24.17;43.55;100289.84;4216185;28;20052;-62
2022/10/18 04:45:24;;;;;;;4.07;2.67;;;;;;;24.16;43.16;100285.41;4195639;28;20041;-62
2022/10/18 04:47:25;;;;;;;4.10;2.78;;;;;;;24.17;43.36;100295.44;4195069;28;20090;-62
2022/10/18 04:49:26;;;;;;;3.88;2.58;;;;;;;24.15;43.24;100297.75;4200340;28;20118;-62
2022/10/18 04:51:28;;;;;;;4.25;2.50;;;;;;;24.08;43.18;100283.38;4200339;28;20032;-62
2022/10/18 04:53:30;;;;;;;3.85;2.30;;;;;;;24.15;43.38;100288.53;4200826;28;20036;-63
2022/10/18 04:55:31;;;;;;;3.25;2.80;;;;;;;24.10;43.02;100289.50;4199534;28;20482;-62
2022/10/18 04:57:32;;;;;;;3.92;2.50;;;;;;;24.14;43.06;100295.25;4199450;28;20078;-62
2022/10/18 04:59:34;;;;;;;3.15;2.33;;;;;;;24.13;43.12;100283.25;4200471;28;20036;-62
2022/10/18 05:01:35;;;;;;;3.20;2.45;;;;;;;24.13;42.91;100286.03;4199942;28;20437;-62
2022/10/18 05:03:36;;;;;;;6.47;2.88;;;;;;;24.13;42.73;100293.59;4200105;28;20445;-63
2022/10/18 05:05:41;;;;;;;2.67;2.20;;;;;;;24.11;43.00;100296.72;4199809;28;20036;-63
2022/10/18 05:07:42;;;;;;;5.45;2.65;;;;;;;24.11;42.74;100291.13;4199661;28;20086;-62
2022/10/18 05:09:44;;;;;;;2.70;2.30;;;;;;;24.09;42.75;100283.03;4200695;28;20085;-62
2022/10/18 05:11:45;;;;;;;3.83;2.50;;;;;;;24.11;42.91;100290.31;4199557;28;20075;-62
2022/10/18 05:13:46;;;;;;;4.30;2.90;;;;;;;24.08;42.86;100275.81;4199928;28;20098;-62
2022/10/18 05:15:48;;;;;;;4.18;2.80;;;;;;;24.09;42.70;100290.59;4199621;28;20082;-63
2022/10/18 05:17:49;;;;;;;3.80;2.70;;;;;;;23.90;42.64;100273.22;4198951;28;20032;-62
2022/10/18 05:19:50;;;;;;;3.70;2.10;;;;;;;24.09;42.70;100304.59;4199846;28;20106;-63
2022/10/18 05:21:52;;;;;;;3.15;2.65;;;;;;;24.09;42.68;100301.78;4199824;28;20082;-62
2022/10/18 05:23:56;;;;;;;3.58;2.10;;;;;;;24.06;42.89;100299.66;4199659;28;20058;-62
2022/10/18 05:26:01;;;;;;;6.43;2.80;;;;;;;24.06;42.81;100299.66;4199531;28;20040;-62
2022/10/18 05:28:05;;;;;;;3.35;2.50;;;;;;;24.06;42.69;100300.47;4200255;28;20097;-63
2022/10/18 05:30:07;;;;;;;3.53;2.10;;;;;;;23.92;42.41;100276.53;4199562;28;20560;-63
2022/10/18 05:32:11;;;;;;;3.65;2.55;;;;;;;24.05;42.58;100298.81;4199831;28;20434;-62
2022/10/18 05:34:16;;;;;;;4.70;2.47;;;;;;;24.04;42.59;100301.91;4199783;28;20098;-62
2022/10/18 05:36:18;;;;;;;;;;;;;;;24.04;42.24;100307.50;4200213;28;20036;-63
2022/10/18 05:38:24;;;;;;;3.97;1.98;;;;;;;23.90;42.23;100259.25;4199750;28;19919;-62
2022/10/18 05:40:26;;;;;;;3.47;2.20;;;;;;;24.06;42.34;100314.44;4199646;28;20044;-63
2022/10/18 05:42:27;;;;;;;2.67;2.22;;;;;;;24.06;42.21;100322.00;4199097;28;20078;-62
2022/10/18 05:44:28;;;;;;;2.88;2.28;;;;;;;24.03;42.14;100317.03;4198588;28;20093;-62
2022/10/18 05:46:30;;;;;;;3.03;2.08;;;;;;;24.04;42.23;100319.50;4199142;28;20036;-62
2022/10/18 05:48:31;;;;;;;3.20;2.20;;;;;;;24.03;42.15;100336.59;4199606;28;20033;-62
2022/10/18 05:50:33;;;;;;;2.78;2.20;;;;;;;24.02;42.26;100329.38;4198715;28;20036;-62
2022/10/18 05:52:34;;;;;;;2.60;2.15;;;;;;;24.01;42.47;100324.94;4199494;28;20468;-63
2022/10/18 05:54:35;;;;;;;2.92;2.25;;;;;;;24.00;42.27;100328.84;4198832;28;20090;-63
2022/10/18 05:56:37;;;;;;;3.05;2.08;;;;;;;23.99;42.42;100328.03;4199297;28;20048;-62
2022/10/18 05:58:38;;;;;;;2.60;2.15;;;;;;;23.93;42.27;100314.50;4198873;28;20426;-62
2022/10/18 06:00:40;;;;;;;2.35;2.10;;;;;;;23.96;41.98;100313.84;4199444;28;20386;-62
2022/10/18 06:02:41;;;;;;;2.72;1.92;;;;;;;23.98;42.33;100314.38;4199114;28;20045;-62
2022/10/18 06:04:42;;;;;;;2.70;2.10;;;;;;;23.98;42.05;100322.75;4198881;28;20048;-62
2022/10/18 06:06:43;;;;;;;4.05;2.92;;;;;;;23.96;42.05;100314.69;4198688;28;20106;-62
2022/10/18 06:08:49;;;;;;;3.28;2.38;;;;;;;23.91;42.17;100312.00;4198843;28;20052;-62
2022/10/18 06:10:53;;;;;;;3.97;1.90;;;;;;;23.80;42.11;100293.84;4193874;28;20098;-62
2022/10/18 06:12:54;;;;;;;2.43;1.77;;;;;;;23.95;42.29;100315.81;4198745;28;20090;-63
2022/10/18 06:14:55;;;;;;;2.85;2.00;;;;;;;23.96;41.95;100306.31;4198629;28;20044;-62
2022/10/18 06:16:57;;;;;;;2.30;2.10;;;;;;;23.95;42.06;100315.00;4198486;28;20044;-62
2022/10/18 06:18:58;;;;;;;2.75;2.00;;;;;;;23.95;42.08;100326.19;4212813;28;20020;-62
2022/10/18 06:21:00;;;;;;;2.08;1.70;;;;;;;23.94;42.03;100313.34;4215741;28;20043;-62
2022/10/18 06:23:01;;;;;;;3.03;2.30;;;;;;;23.94;42.25;100314.19;4215368;28;20074;-63
2022/10/18 06:25:02;;;;;;;2.17;1.65;;;;;;;23.93;41.75;100314.50;4215322;28;20052;-62
2022/10/18 06:27:10;;;;;;;3.20;1.90;;;;;;;23.90;42.00;100301.16;4215649;28;20043;-62
2022/10/18 06:29:12;;;;;;;2.58;1.90;;;;;;;23.94;41.77;100302.19;4215488;28;20048;-62
2022/10/18 06:31:14;;;;;;;2.97;2.03;;;;;;;23.93;41.72;100306.13;4215657;28;20074;-62
2022/10/18 06:33:18;;;;;;;2.78;1.90;;;;;;;23.80;41.86;100293.84;4208575;28;20513;-62
2022/10/18 06:35:19;;;;;;;1.80;1.58;;;;;;;23.80;41.64;100300.25;4214394;28;20077;-62
2022/10/18 06:37:20;;;;;;;2.67;2.10;;;;;;;23.90;42.01;100307.56;4215407;28;20039;-62
2022/10/18 06:39:21;;;;;;;3.63;1.70;;;;;;;23.90;41.50;100299.19;4204863;28;20091;-62
2022/10/18 06:41:23;;;;;;;2.47;1.83;;;;;;;23.88;41.83;100292.28;4198711;28;20098;-62
2022/10/18 06:43:25;;;;;;;2.25;2.00;;;;;;;23.89;41.93;100291.94;4198628;28;20032;-62
2022/10/18 06:45:26;;;;;;;2.17;1.80;;;;;;;23.82;41.73;100278.44;4198377;28;20056;-62
2022/10/18 06:47:27;;;;;;;2.03;1.83;;;;;;;23.89;41.37;100282.75;4197252;28;20102;-62
2022/10/18 06:49:29;;;;;;;1.95;1.75;;;;;;;23.88;41.41;100269.91;4191545;28;20102;-63
2022/10/18 06:51:30;;;;;;;2.90;1.90;;;;;;;23.87;41.71;100274.69;4197455;28;20441;-62
2022/10/18 06:53:34;;;;;;;2.72;1.92;;;;;;;23.87;41.74;100262.66;4196994;28;20044;-62
2022/10/18 06:55:36;;;;;;;2.70;2.00;;;;;;;23.86;41.82;100261.84;4194874;28;20102;-62
2022/10/18 06:57:40;;;;;;;3.13;2.10;;;;;;;23.86;41.75;100264.63;4198419;28;20138;-62
2022/10/18 06:59:44;;;;;;;2.90;2.30;;;;;;;23.84;41.54;100281.72;4197453;28;20041;-62
2022/10/18 07:01:45;;;;;;;2.47;1.60;;;;;;;23.86;41.56;100277.78;4197965;28;20070;-62
2022/10/18 07:03:48;;;;;;;3.15;1.95;;;;;;;23.87;41.42;100273.84;4197761;28;20028;-62
2022/10/18 07:05:50;;;;;;;2.42;1.90;;;;;;;23.84;41.42;100270.53;4197517;28;20044;-62
2022/10/18 07:07:53;;;;;;;2.78;1.70;;;;;;;23.84;41.47;100287.31;4197891;28;20158;-62
2022/10/18 07:09:54;;;;;;;2.10;1.80;;;;;;;23.83;41.33;100288.47;4198569;28;20053;-62
2022/10/18 07:11:55;;;;;;;1.67;1.50;;;;;;;23.83;41.54;100279.25;4198216;28;20036;-62
2022/10/18 07:14:02;;;;;;;1.60;1.40;;;;;;;23.79;41.28;100265.09;4197768;28;20095;-62
2022/10/18 07:16:06;;;;;;;2.85;1.75;;;;;;;23.81;41.34;100259.16;4196681;28;20568;-62
2022/10/18 07:18:07;;;;;;;2.50;2.13;;;;;;;23.80;41.67;100251.94;4197719;28;20032;-62
2022/10/18 07:20:11;;;;;;;1.92;1.55;;;;;;;23.65;41.58;100225.22;4197755;28;20040;-63
2022/10/18 07:22:13;;;;;;;2.78;1.70;;;;;;;23.80;41.47;100258.34;4197771;28;20040;-62
2022/10/18 07:24:16;;;;;;;2.72;1.90;;;;;;;23.80;41.41;100258.34;4198044;28;20083;-62
2022/10/18 07:26:29;;;;;;;2.65;1.90;;;;;;;23.79;41.42;100251.13;4197806;28;20103;-62
2022/10/18 07:28:30;;;;;;;2.72;1.60;;;;;;;23.80;41.42;100258.34;4197753;28;20037;-62
2022/10/18 07:30:35;;;;;;;2.13;1.70;;;;;;;23.61;41.46;100232.53;4197519;28;20118;-63
2022/10/18 07:32:36;;;;;;;2.35;1.60;;;;;;;23.80;41.25;100263.94;4197910;28;20037;-62
2022/10/18 07:34:38;;;;;;;2.97;1.80;;;;;;;23.80;41.15;100263.13;4197030;28;20032;-62
2022/10/18 07:36:40;;;;;;;1.80;1.48;;;;;;;23.79;41.42;100262.28;4197282;28;20040;-62
2022/10/18 07:38:41;;;;;;;2.22;1.73;;;;;;;23.60;41.07;100225.31;4197538;28;20114;-62
2022/10/18 07:40:42;;;;;;;3.30;1.65;;;;;;;23.77;41.07;100253.38;4197800;28;20044;-62
2022/10/18 07:42:44;;;;;;;2.30;1.70;;;;;;;23.76;41.42;100257.31;4197195;28;20154;-62
2022/10/18 07:44:48;;;;;;;2.42;1.73;;;;;;;23.63;41.31;100235.00;4196703;28;20137;-62
2022/10/18 07:46:52;;;;;;;1.75;1.40;;;;;;;23.76;41.29;100257.31;4196124;28;20040;-62
2022/10/18 07:48:54;;;;;;;2.17;1.65;;;;;;;23.76;41.40;100256.50;4198030;28;20037;-62
2022/10/18 07:51:00;;;;;;;3.97;1.67;;;;;;;23.52;41.21;100206.50;4197350;28;20090;-62
2022/10/18 07:53:01;;;;;;;1.95;1.58;;;;;;;23.63;41.07;100235.81;4197108;28;20065;-62
2022/10/18 07:55:03;;;;;;;1.63;1.40;;;;;;;23.74;41.05;100259.63;4197394;28;20037;-62
2022/10/18 07:57:04;;;;;;;1.63;1.45;;;;;;;23.73;41.23;100269.16;4181034;28;20049;-62
2022/10/18 07:59:05;;;;;;;1.60;1.38;;;;;;;23.74;41.00;100270.81;4197138;28;20044;-62
2022/10/18 08:01:08;;;;;;;2.03;1.38;;;;;;;23.72;41.25;100273.06;4194833;28;20094;-62
2022/10/18 08:03:09;;;;;;;1.98;1.55;;;;;;;23.72;41.28;100278.66;4197209;28;20079;-62
2022/10/18 08:05:10;;;;;;;2.35;1.30;;;;;;;23.72;40.84;100292.63;4196362;28;20033;-62
2022/10/18 08:07:14;;;;;;;3.10;1.50;;;;;;;23.66;40.73;100279.09;4197535;28;20044;-62
2022/10/18 08:09:16;;;;;;;1.63;1.25;;;;;;;23.71;41.02;100293.78;4201135;28;20041;-62
2022/10/18 08:11:19;;;;;;;2.35;1.58;;;;;;;23.68;41.08;100294.38;4200711;28;20070;-62
2022/10/18 08:13:21;;;;;;;2.35;1.20;;;;;;;23.71;40.81;100282.59;4201094;28;20037;-62
2022/10/18 08:15:24;;;;;;;1.48;1.38;;;;;;;23.70;41.23;100292.13;4199950;28;20488;-62
2022/10/18 08:17:28;;;;;;;2.10;1.48;;;;;;;23.69;40.83;100298.84;4199731;28;20086;-62
2022/10/18 08:19:29;;;;;;;1.85;1.45;;;;;;;23.69;40.81;100293.28;4200403;28;20541;-62
2022/10/18 08:21:31;;;;;;;1.63;1.45;;;;;;;23.70;40.92;100302.47;4200375;28;20437;-62
2022/10/18 08:23:32;;;;;;;2.83;1.45;;;;;;;23.69;40.80;100307.25;4199073;28;20037;-62
2022/10/18 08:25:34;;;;;;;2.08;1.30;;;;;;;23.67;40.79;100309.50;4198770;28;20108;-62
2022/10/18 08:27:35;;;;;;;1.58;1.33;;;;;;;23.68;41.13;100321.50;4199855;28;20040;-62
2022/10/18 08:29:36;;;;;;;1.35;1.17;;;;;;;23.68;40.97;100319.53;4200227;28;20101;-62
2022/10/18 08:31:37;;;;;;;3.95;1.48;;;;;;;23.66;41.05;100327.41;4200478;28;20082;-62
2022/10/18 08:33:39;;;;;;;1.77;1.38;;;;;;;23.66;40.64;100330.22;4200507;28;20111;-62
2022/10/18 08:35:52;;;;;;;2.20;1.10;;;;;;;20.34;40.83;99786.28;4199441;28;20086;-62
2022/10/18 08:37:54;;;;;;;1.40;1.15;;;;;;;23.66;40.89;100330.22;4200501;28;20040;-62
2022/10/18 08:39:55;;;;;;;1.85;1.13;;;;;;;23.57;40.65;100310.53;4200234;28;20111;-63
2022/10/18 08:42:05;;;;;;;1.25;1.10;;;;;;;23.65;40.74;100311.81;4200231;28;20044;-63
2022/10/18 08:44:22;;;;;;;1.30;1.20;;;;;;;23.63;40.70;100307.63;4200905;28;20487;-62
2022/10/18 08:46:24;;;;;;;1.02;0.93;;;;;;;23.66;40.54;100318.22;4200018;28;20041;-62
2022/10/18 08:48:37;;;;;;;1.60;1.17;;;;;;;23.51;40.43;100299.81;4200293;28;20041;-62
2022/10/18 08:50:40;;;;;;;1.50;1.13;;;;;;;23.63;40.39;100336.38;4200247;28;20052;-62
2022/10/18 08:53:15;;;;;;;1.85;1.25;;;;;;;23.62;40.97;100339.50;4200062;28;20086;-62
2022/10/18 08:55:22;;;;;;;1.98;1.30;;;;;;;23.64;40.13;100352.06;4194540;28;20097;-62
2022/10/18 08:57:23;;;;;;;2.90;1.17;;;;;;;23.63;40.54;100346.72;4200635;28;20093;-62
2022/10/18 08:59:37;;;;;;;1.40;1.13;;;;;;;23.61;40.46;100347.06;4199735;28;20465;-62
2022/10/18 09:02:16;;;;;;;1.55;1.20;;;;;;;23.58;40.62;100342.09;4200314;28;20157;-62
2022/10/18 09:04:40;;;;;;;1.70;1.15;;;;;;;23.61;40.30;100344.25;4162489;28;20454;-62
2022/10/18 09:06:50;;;;;;;2.35;1.40;;;;;;;23.61;40.39;100337.84;4175694;28;20040;-62
2022/10/18 09:09:20;;;;;;;1.27;1.00;;;;;;;23.60;40.73;100331.44;4200765;28;20094;-62
2022/10/18 09:11:50;;;;;;;2.58;1.20;;;;;;;23.58;40.50;100342.09;4182360;28;20444;-62
2022/10/18 09:14:30;;;;;;;2.53;1.27;;;;;;;23.58;40.41;100361.63;4200359;28;20110;-62
2022/10/18 09:16:34;;;;;;;1.67;1.23;;;;;;;23.60;40.57;100348.19;4200207;28;20057;-63
2022/10/18 09:19:07;;;;;;;1.30;0.90;;;;;;;23.58;40.42;100344.88;4199428;28;20094;-62
2022/10/18 09:21:45;;;;;;;1.40;1.10;;;;;;;23.57;40.35;100335.69;4199441;28;20106;-62
2022/10/18 09:23:52;;;;;;;1.10;1.00;;;;;;;23.58;40.48;100334.53;4199302;28;20041;-62
2022/10/18 09:26:09;;;;;;;1.35;1.10;;;;;;;23.32;40.18;100305.50;4199273;28;20037;-62
2022/10/18 09:28:22;;;;;;;1.38;1.10;;;;;;;23.56;40.15;100342.41;4199596;28;20037;-62
2022/10/18 09:30:40;;;;;;;1.05;0.95;;;;;;;23.55;40.43;100351.09;4199697;28;20094;-62
2022/10/18 09:33:17;;;;;;;1.30;1.20;;;;;;;23.44;40.46;100332.91;4199767;28;20037;-63
2022/10/18 09:35:26;;;;;;;1.33;0.85;;;;;;;23.55;40.14;100363.09;4188615;28;20441;-63
2022/10/18 09:37:33;;;;;;;1.33;1.23;;;;;;;23.55;40.34;100351.09;4192872;28;20033;-62
2022/10/18 09:39:39;;;;;;;1.08;0.80;;;;;;;23.54;40.20;100360.59;4196466;28;20485;-62
2022/10/18 09:41:52;;;;;;;1.75;1.10;;;;;;;23.30;40.37;100311.41;4199415;28;20472;-62
2022/10/18 09:44:09;;;;;;;2.08;1.38;;;;;;;23.53;40.25;100358.94;4199779;28;20041;-62
2022/10/18 09:46:14;;;;;;;1.35;1.10;;;;;;;23.54;40.38;100360.59;4185845;28;20049;-62